Albion, IA (50005)

7:26 PM CDT on July 29, 2016 (GMT -0500)
Marshalltown Municipal | | Change Station

Elev 971 ft 42.11 °N, 92.92 °W | Updated 33 minutes ago

Overcast
Overcast
71 °F
Feels Like 71 °F
N
9
Wind Variable Wind from NNE

Today
High -- | Low -- °F
--% Chance of Precip.
Yesterday
High -- | Low -- °F
Precip. -- in
Pressure 29.97 in
Visibility 10.0 miles
Clouds Few 1800 ft
Scattered Clouds 2900 ft
Overcast 3500 ft
Dew Point 65 °F
Humidity 81%
Rainfall 0.05 in
Snow Depth Not available.
6:02 AM 8:33 PM
Waning Crescent, 18% visible
METAR KMIW 292353Z AUTO 03008KT 10SM FEW018 SCT029 OVC035 22/18 A2998 RMK AO2 SLP147 T02170183 10228 20194 51001
Pressure 29.97 in
Visibility 10.0 miles
Clouds Few 1800 ft
Scattered Clouds 2900 ft
Overcast 3500 ft
Dew Point 65 °F
Humidity 81%
Rainfall 0.05 in
Snow Depth Not available.
6:02 AM 8:33 PM
Waning Crescent, 18% visible
METAR KMIW 292353Z AUTO 03008KT 10SM FEW018 SCT029 OVC035 22/18 A2998 RMK AO2 SLP147 T02170183 10228 20194 51001

10-Day Weather Forecast

Almanac

Astronomy

Jul. 29, 2016 Rise Set
Actual Time
Civil Twilight
Nautical Twilight
Astronomical Twilight
Moon
Length of Visible Light
Length of Day
Tomorrow will be .
, % of the Moon is Illuminated

Today's Extremes

State Highs State Lows

Community

WunderPhotos

Upload Photos

1,928,449 photos uploaded!

WunderBlog® & News

Nearby

Air Quality

  Air Quality AQ Index Pollutant
Not available.

Snow Depth

Station Depth Elevation

Earthquake Activity

City Distance Mag. Time & Date
Minimum magnitude displayed is 2.5.

Coastal Water Temperatures

Place Temperature

Stations

Nearby Weather Stations

Station Location Temp. Windchill Dew Point Humidity Wind Precip. Elev Updated Type
                   

Watches & Warnings

There are currently no watches in effect.